createdAt,value
2023-05-09T00:01:30.289Z,7.93
2023-05-09T00:03:05.347Z,9.16
2023-05-09T00:04:35.501Z,9.94
2023-05-09T00:06:02.104Z,9.71
2023-05-09T00:07:36.002Z,9.18
2023-05-09T00:08:59.990Z,8.72
2023-05-09T00:10:21.469Z,8.33
2023-05-09T00:11:55.032Z,7.96
2023-05-09T00:13:16.379Z,7.69
2023-05-09T00:15:01.052Z,7.47
2023-05-09T00:16:25.217Z,7.22
2023-05-09T00:17:54.976Z,7.04
2023-05-09T00:19:24.444Z,6.86
2023-05-09T00:21:05.493Z,6.65
2023-05-09T00:22:30.468Z,6.78
2023-05-09T00:24:02.404Z,7.80
2023-05-09T00:25:26.061Z,9.05
2023-05-09T00:26:48.476Z,9.89
2023-05-09T00:28:21.449Z,9.82
2023-05-09T00:29:52.984Z,9.30
2023-05-09T00:31:14.741Z,8.79
2023-05-09T00:32:41.192Z,8.34
2023-05-09T00:34:05.806Z,7.95
2023-05-09T00:35:35.059Z,7.64
2023-05-09T00:37:07.064Z,7.33
2023-05-09T00:38:28.988Z,7.11
2023-05-09T00:40:02.570Z,6.88
2023-05-09T00:41:24.505Z,6.69
2023-05-09T00:42:58.198Z,6.53
2023-05-09T00:44:27.256Z,6.95
2023-05-09T00:46:01.208Z,8.27
2023-05-09T00:47:23.081Z,9.39
2023-05-09T00:48:52.376Z,9.82
2023-05-09T00:50:16.169Z,9.47
2023-05-09T00:51:38.024Z,8.97
2023-05-09T00:53:13.715Z,8.46
2023-05-09T00:54:38.097Z,7.97
2023-05-09T00:56:02.245Z,7.63
2023-05-09T00:57:24.273Z,7.36
2023-05-09T00:58:59.944Z,7.10
2023-05-09T01:00:33.156Z,6.90
2023-05-09T01:02:08.998Z,6.67
2023-05-09T01:03:31.255Z,6.50
2023-05-09T01:04:53.315Z,6.36
2023-05-09T01:06:17.751Z,6.36
2023-05-09T01:07:39.633Z,7.09
2023-05-09T01:09:07.290Z,8.30
2023-05-09T01:10:29.172Z,9.38
2023-05-09T01:11:51.044Z,9.60
2023-05-09T01:13:12.697Z,9.25
2023-05-09T01:14:36.498Z,8.75
2023-05-09T01:16:12.365Z,8.28
2023-05-09T01:17:34.127Z,7.85
2023-05-09T01:19:06.333Z,7.53
2023-05-09T01:20:28.601Z,7.28
2023-05-09T01:21:57.777Z,7.06
2023-05-09T01:23:22.052Z,6.85
2023-05-09T01:24:48.642Z,6.68
2023-05-09T01:26:12.961Z,6.52
2023-05-09T01:27:44.664Z,6.38
2023-05-09T01:29:06.627Z,6.24
2023-05-09T01:30:30.477Z,6.12
2023-05-09T01:31:59.597Z,6.20
2023-05-09T01:33:20.983Z,7.05
2023-05-09T01:34:42.967Z,8.25
2023-05-09T01:36:05.173Z,9.27
2023-05-09T01:37:29.326Z,9.42
2023-05-09T01:38:51.151Z,9.05
2023-05-09T01:40:12.615Z,8.59
2023-05-09T01:41:34.130Z,8.14
2023-05-09T01:42:56.138Z,7.78
2023-05-09T01:44:20.586Z,7.48
2023-05-09T01:45:50.101Z,7.22
2023-05-09T01:47:23.688Z,6.99
2023-05-09T01:48:45.077Z,6.79
2023-05-09T01:50:08.832Z,6.64
2023-05-09T01:51:31.169Z,6.50
2023-05-09T01:52:55.093Z,6.36
2023-05-09T01:54:26.250Z,6.24
2023-05-09T01:55:59.864Z,6.12
2023-05-09T01:57:21.110Z,6.01
2023-05-09T01:58:48.201Z,5.91
2023-05-09T02:00:12.917Z,5.81
2023-05-09T02:01:52.569Z,5.90
2023-05-09T02:03:14.174Z,6.87
2023-05-09T02:04:36.181Z,8.10
2023-05-09T02:05:57.875Z,9.12
2023-05-09T02:07:19.660Z,9.26
2023-05-09T02:08:45.932Z,8.88
2023-05-09T02:10:30.034Z,8.36
2023-05-09T02:11:52.947Z,7.89
2023-05-09T02:13:26.903Z,7.52
2023-05-09T02:14:51.393Z,7.26
2023-05-09T02:16:15.610Z,7.04
2023-05-09T02:17:39.697Z,6.85
2023-05-09T02:19:02.053Z,6.70
2023-05-09T02:20:42.228Z,6.55
2023-05-09T02:22:12.991Z,6.38
2023-05-09T02:23:34.674Z,6.27
2023-05-09T02:25:01.241Z,6.16
2023-05-09T02:26:32.298Z,6.04
2023-05-09T02:28:05.804Z,5.93
2023-05-09T02:29:30.170Z,5.83
2023-05-09T02:31:06.056Z,5.73
2023-05-09T02:32:30.198Z,6.04
2023-05-09T02:33:52.780Z,7.11
2023-05-09T02:35:22.326Z,8.48
2023-05-09T02:36:51.601Z,9.15
2023-05-09T02:38:23.046Z,8.96
2023-05-09T02:39:44.592Z,8.48
2023-05-09T02:41:14.170Z,8.03
2023-05-09T02:42:36.134Z,7.63
2023-05-09T02:44:17.202Z,7.29
2023-05-09T02:45:41.372Z,7.02
2023-05-09T02:47:03.535Z,6.81
2023-05-09T02:48:25.657Z,6.64
2023-05-09T02:49:59.616Z,6.49
2023-05-09T02:51:24.147Z,6.32
2023-05-09T02:52:57.648Z,6.19
2023-05-09T02:54:21.601Z,6.06
2023-05-09T02:55:45.752Z,6.03
2023-05-09T02:57:09.859Z,6.74
2023-05-09T02:58:55.610Z,8.07
2023-05-09T03:00:31.505Z,9.18
2023-05-09T03:01:55.895Z,9.14
2023-05-09T03:03:31.842Z,8.64
2023-05-09T03:04:54.057Z,8.15
2023-05-09T03:06:39.318Z,7.70
2023-05-09T03:08:03.584Z,7.32
2023-05-09T03:09:32.704Z,7.03
2023-05-09T03:10:57.191Z,6.80
2023-05-09T03:12:19.131Z,6.60
2023-05-09T03:13:43.393Z,6.43
2023-05-09T03:15:07.908Z,6.26
2023-05-09T03:16:31.808Z,6.10
2023-05-09T03:18:01.723Z,6.00
2023-05-09T03:19:26.424Z,6.58
2023-05-09T03:20:48.469Z,7.74
2023-05-09T03:22:19.203Z,8.92
2023-05-09T03:24:02.824Z,9.37
2023-05-09T03:25:38.361Z,8.88
2023-05-09T03:27:11.572Z,8.32
2023-05-09T03:28:35.995Z,7.88
2023-05-09T03:29:59.870Z,7.51
2023-05-09T03:31:21.004Z,7.22
2023-05-09T03:32:50.212Z,6.98
2023-05-09T03:34:17.171Z,6.75
2023-05-09T03:35:41.430Z,6.56
2023-05-09T03:37:11.211Z,6.40
2023-05-09T03:38:35.154Z,6.25
2023-05-09T03:40:09.003Z,6.24
2023-05-09T03:41:36.316Z,7.06
2023-05-09T03:43:10.028Z,8.25
2023-05-09T03:44:34.006Z,9.50
2023-05-09T03:46:04.060Z,9.73
2023-05-09T03:47:26.390Z,9.31
2023-05-09T03:48:48.669Z,8.82
2023-05-09T03:50:21.823Z,8.31
2023-05-09T03:51:54.122Z,7.90
2023-05-09T03:53:18.823Z,7.60
2023-05-09T03:54:52.947Z,7.34
2023-05-09T03:56:16.687Z,7.11
2023-05-09T03:57:42.494Z,6.94
2023-05-09T03:59:11.956Z,6.78
2023-05-09T04:00:36.171Z,6.64
2023-05-09T04:02:03.303Z,6.52
2023-05-09T04:03:25.034Z,6.42
2023-05-09T04:04:54.743Z,6.70
2023-05-09T04:06:24.021Z,7.93
2023-05-09T04:07:53.063Z,9.26
2023-05-09T04:09:15.673Z,9.93
2023-05-09T04:10:37.397Z,9.79
2023-05-09T04:12:01.383Z,9.39
2023-05-09T04:13:31.771Z,8.90
2023-05-09T04:14:56.447Z,8.53
2023-05-09T04:16:19.171Z,8.24
2023-05-09T04:17:40.769Z,8.01
2023-05-09T04:19:02.634Z,7.82
2023-05-09T04:20:32.902Z,7.66
2023-05-09T04:22:18.042Z,7.52
2023-05-09T04:23:45.124Z,7.41
2023-05-09T04:25:28.222Z,7.31
2023-05-09T04:26:53.111Z,7.22
2023-05-09T04:28:28.547Z,7.15
2023-05-09T04:29:51.556Z,7.08
2023-05-09T04:31:21.200Z,7.02
2023-05-09T04:32:46.142Z,6.98
2023-05-09T04:34:08.064Z,7.00
2023-05-09T04:35:32.519Z,7.67
2023-05-09T04:37:02.221Z,8.89
2023-05-09T04:38:43.365Z,10.25
2023-05-09T04:40:15.999Z,10.44
2023-05-09T04:41:44.393Z,10.10
2023-05-09T04:43:20.151Z,9.66
2023-05-09T04:44:42.419Z,9.34
2023-05-09T04:46:04.460Z,9.07
2023-05-09T04:47:34.016Z,8.87
2023-05-09T04:49:03.720Z,8.70
2023-05-09T04:50:39.575Z,8.55
2023-05-09T04:52:12.451Z,8.44
2023-05-09T04:53:54.582Z,8.37
2023-05-09T04:55:19.412Z,8.29
2023-05-09T04:57:13.751Z,8.25
2023-05-09T04:58:41.873Z,8.20
2023-05-09T05:00:07.349Z,8.16
2023-05-09T05:01:32.604Z,8.14
2023-05-09T05:02:54.721Z,8.12
2023-05-09T05:04:18.471Z,8.10
2023-05-09T05:05:52.404Z,8.09
2023-05-09T05:07:37.540Z,8.07
2023-05-09T05:09:02.834Z,8.06
2023-05-09T05:10:36.353Z,8.06
2023-05-09T05:12:09.805Z,8.06
2023-05-09T05:13:34.513Z,8.51
2023-05-09T05:15:19.764Z,9.80
2023-05-09T05:16:56.877Z,11.19
2023-05-09T05:18:30.207Z,11.54
2023-05-09T05:20:02.997Z,11.23
2023-05-09T05:21:37.044Z,10.87
2023-05-09T05:23:22.020Z,10.49
2023-05-09T05:24:46.597Z,10.22
2023-05-09T05:26:20.132Z,10.05
2023-05-09T05:27:44.805Z,9.89
2023-05-09T05:29:10.738Z,9.80
2023-05-09T05:30:35.477Z,9.73
2023-05-09T05:31:57.766Z,9.67
2023-05-09T05:33:31.140Z,9.63
2023-05-09T05:34:53.748Z,9.60
2023-05-09T05:36:15.353Z,9.58
2023-05-09T05:37:49.186Z,9.55
2023-05-09T05:39:42.309Z,9.54
2023-05-09T05:41:18.672Z,9.54
2023-05-09T05:42:41.074Z,9.54
2023-05-09T05:44:10.264Z,9.55
2023-05-09T05:45:44.128Z,9.57
2023-05-09T05:47:17.785Z,9.59
2023-05-09T05:48:40.392Z,9.62
2023-05-09T05:50:16.100Z,9.65
2023-05-09T05:51:45.692Z,9.69
2023-05-09T05:53:26.894Z,9.73
2023-05-09T05:55:12.263Z,9.76
2023-05-09T05:56:51.474Z,9.80
2023-05-09T05:58:13.036Z,9.85
2023-05-09T05:59:49.428Z,9.89
2023-05-09T06:01:18.601Z,9.94
2023-05-09T06:02:52.360Z,9.99
2023-05-09T06:04:32.453Z,10.04
2023-05-09T06:05:54.676Z,10.07
2023-05-09T06:07:18.204Z,10.12
2023-05-09T06:09:01.226Z,10.17
2023-05-09T06:10:45.974Z,10.23
2023-05-09T06:12:17.346Z,10.30
2023-05-09T06:13:48.825Z,10.37
2023-05-09T06:15:11.352Z,10.44
2023-05-09T06:16:46.545Z,10.52
2023-05-09T06:18:22.517Z,10.59
2023-05-09T06:19:54.108Z,10.66
2023-05-09T06:21:16.007Z,10.73
2023-05-09T06:22:45.372Z,10.79
2023-05-09T06:24:27.480Z,10.87
2023-05-09T06:26:01.195Z,10.98
2023-05-09T06:27:25.544Z,11.05
2023-05-09T06:28:50.043Z,11.13
2023-05-09T06:30:24.755Z,11.21
2023-05-09T06:31:48.482Z,11.29
2023-05-09T06:33:21.653Z,11.34
2023-05-09T06:34:48.154Z,11.40
2023-05-09T06:36:12.186Z,11.44
2023-05-09T06:37:33.804Z,11.49
2023-05-09T06:38:58.767Z,11.55
2023-05-09T06:40:29.664Z,11.61
2023-05-09T06:41:58.701Z,11.67
2023-05-09T06:43:32.875Z,11.74
2023-05-09T06:45:02.615Z,11.80
2023-05-09T06:46:26.586Z,11.86
2023-05-09T06:47:51.188Z,11.91
2023-05-09T06:49:14.207Z,11.96
2023-05-09T06:50:38.375Z,12.03
2023-05-09T06:52:00.175Z,12.09
2023-05-09T06:53:29.574Z,12.14
2023-05-09T06:54:59.787Z,12.20
2023-05-09T06:56:22.674Z,12.24
2023-05-09T06:57:44.232Z,12.27
2023-05-09T06:59:20.204Z,12.30
2023-05-09T07:00:41.772Z,12.33
2023-05-09T07:02:06.386Z,12.37
2023-05-09T07:03:28.204Z,12.40
2023-05-09T07:04:50.223Z,12.44
2023-05-09T07:06:11.590Z,12.49
2023-05-09T07:07:35.532Z,12.54
2023-05-09T07:08:57.443Z,12.60
2023-05-09T07:10:18.907Z,12.67
2023-05-09T07:11:50.447Z,12.72
2023-05-09T07:13:12.168Z,12.77
2023-05-09T07:14:38.189Z,12.80
2023-05-09T07:16:00.337Z,12.83
2023-05-09T07:17:24.408Z,12.86
2023-05-09T07:18:46.464Z,12.91
2023-05-09T07:20:08.409Z,12.97
2023-05-09T07:21:37.440Z,13.04
2023-05-09T07:23:07.020Z,13.10
2023-05-09T07:24:28.940Z,13.16
2023-05-09T07:25:51.024Z,13.22
2023-05-09T07:27:12.518Z,13.28
2023-05-09T07:28:43.533Z,13.33
2023-05-09T07:30:13.262Z,13.37
2023-05-09T07:31:47.222Z,13.42
2023-05-09T07:33:08.899Z,13.44
2023-05-09T07:34:32.615Z,13.47
2023-05-09T07:35:57.150Z,13.50
2023-05-09T07:37:26.161Z,13.53
2023-05-09T07:38:52.903Z,13.54
2023-05-09T07:40:26.414Z,13.57
2023-05-09T07:41:50.690Z,13.59
2023-05-09T07:43:12.634Z,13.63
2023-05-09T07:44:46.187Z,13.66
2023-05-09T07:46:07.976Z,13.69
2023-05-09T07:47:30.088Z,13.72
2023-05-09T07:48:56.939Z,13.75
2023-05-09T07:50:33.189Z,13.80
2023-05-09T07:51:55.358Z,13.86
2023-05-09T07:53:16.712Z,13.91
2023-05-09T07:54:40.837Z,13.95
2023-05-09T07:56:03.013Z,14.00
2023-05-09T07:57:32.464Z,14.03
2023-05-09T07:58:55.866Z,14.06
2023-05-09T08:00:29.801Z,14.08
2023-05-09T08:01:51.744Z,14.09
2023-05-09T08:03:20.896Z,14.12
2023-05-09T08:04:56.059Z,14.15
2023-05-09T08:06:19.825Z,14.19
2023-05-09T08:07:41.776Z,14.23
2023-05-09T08:09:04.490Z,14.26
2023-05-09T08:10:33.563Z,14.30
2023-05-09T08:11:55.631Z,14.35
2023-05-09T08:13:19.511Z,14.38
2023-05-09T08:14:41.321Z,14.40
2023-05-09T08:16:03.661Z,14.43
2023-05-09T08:17:25.472Z,14.45
2023-05-09T08:18:54.551Z,14.46
2023-05-09T08:20:16.075Z,14.47
2023-05-09T08:21:51.872Z,14.49
2023-05-09T08:23:21.003Z,14.50
2023-05-09T08:24:43.038Z,14.50
2023-05-09T08:26:05.481Z,14.51
2023-05-09T08:27:26.910Z,14.50
2023-05-09T08:28:49.610Z,14.51
2023-05-09T08:30:11.414Z,14.53
2023-05-09T08:31:32.954Z,14.56
2023-05-09T08:32:57.273Z,14.61
2023-05-09T08:34:21.238Z,14.68
2023-05-09T08:37:42.372Z,14.82
2023-05-09T08:39:11.425Z,14.89
2023-05-09T08:40:33.481Z,14.94
2023-05-09T08:42:07.293Z,14.98
2023-05-09T08:43:31.418Z,15.01
2023-05-09T08:44:53.385Z,15.04
2023-05-09T08:46:26.586Z,15.08
2023-05-09T08:47:55.580Z,15.10
2023-05-09T08:49:17.179Z,15.14
2023-05-09T08:50:41.117Z,15.16
2023-05-09T08:52:05.167Z,15.19
2023-05-09T08:53:27.112Z,15.24
2023-05-09T08:54:53.481Z,15.28
2023-05-09T08:56:17.345Z,15.31
2023-05-09T08:57:38.908Z,15.33
2023-05-09T08:59:00.834Z,15.37
2023-05-09T09:00:22.696Z,15.43
2023-05-09T09:01:44.543Z,15.49
2023-05-09T09:03:06.520Z,15.55
2023-05-09T09:04:39.649Z,15.62
2023-05-09T09:06:09.211Z,15.69
2023-05-09T09:07:33.041Z,15.74
2023-05-09T09:08:55.044Z,15.80
2023-05-09T09:10:16.736Z,15.87
2023-05-09T09:11:39.085Z,15.93
2023-05-09T09:13:03.289Z,15.98
2023-05-09T09:14:40.097Z,16.03
2023-05-09T09:16:15.983Z,16.05
2023-05-09T09:17:39.972Z,16.07
2023-05-09T09:19:01.965Z,16.09
2023-05-09T09:20:30.830Z,16.11
2023-05-09T09:21:56.166Z,16.13
2023-05-09T09:23:17.697Z,16.16
2023-05-09T09:24:39.181Z,16.19
2023-05-09T09:26:03.294Z,16.22
2023-05-09T09:27:25.277Z,16.24
2023-05-09T09:28:47.221Z,16.27
2023-05-09T09:30:08.764Z,16.29
2023-05-09T09:31:30.508Z,16.32
2023-05-09T09:32:54.702Z,16.39
2023-05-09T09:34:16.185Z,16.44
2023-05-09T09:35:38.061Z,16.50
2023-05-09T09:37:02.306Z,16.58
2023-05-09T09:38:31.162Z,16.64
2023-05-09T09:39:53.522Z,16.70
2023-05-09T09:41:15.324Z,16.73
2023-05-09T09:42:37.958Z,16.78
2023-05-09T09:43:59.968Z,16.81
2023-05-09T09:45:21.889Z,16.84
2023-05-09T09:46:51.501Z,16.85
2023-05-09T09:48:15.496Z,16.87
2023-05-09T09:49:37.232Z,16.89
2023-05-09T09:50:58.991Z,16.93
2023-05-09T09:52:20.812Z,16.97
2023-05-09T09:53:49.955Z,17.02
2023-05-09T09:55:13.604Z,17.08
2023-05-09T09:56:36.125Z,17.13
2023-05-09T09:57:57.921Z,17.16
2023-05-09T09:59:19.403Z,17.19
2023-05-09T10:00:43.894Z,17.23
2023-05-09T10:02:15.107Z,17.27
2023-05-09T10:03:44.337Z,17.32
2023-05-09T10:05:06.534Z,17.36
2023-05-09T10:06:28.623Z,17.41
2023-05-09T10:07:53.380Z,17.48
2023-05-09T10:09:22.478Z,17.54
2023-05-09T10:10:56.074Z,17.62
2023-05-09T10:12:20.066Z,17.66
2023-05-09T10:13:42.621Z,17.69
2023-05-09T10:15:07.739Z,17.72
2023-05-09T10:16:42.762Z,17.76
2023-05-09T10:18:08.171Z,17.81
2023-05-09T10:19:32.399Z,17.81
2023-05-09T10:20:54.857Z,17.83
2023-05-09T10:22:16.601Z,17.84
2023-05-09T10:23:38.327Z,17.87
2023-05-09T10:25:00.186Z,17.90
2023-05-09T10:26:36.197Z,17.94
2023-05-09T10:27:58.004Z,17.96
2023-05-09T10:29:27.039Z,17.98
2023-05-09T10:30:56.547Z,17.99
2023-05-09T10:32:20.401Z,17.99
2023-05-09T10:33:44.435Z,17.99
2023-05-09T10:35:06.885Z,17.99
2023-05-09T10:36:29.329Z,18.00
2023-05-09T10:37:51.170Z,18.01
2023-05-09T10:39:20.205Z,18.01
2023-05-09T10:40:42.008Z,18.04
2023-05-09T10:42:04.083Z,18.10
2023-05-09T10:43:28.339Z,18.19
2023-05-09T10:44:49.973Z,18.29
2023-05-09T10:46:11.573Z,18.42
2023-05-09T10:47:35.842Z,18.55
2023-05-09T10:48:57.523Z,18.66
2023-05-09T10:50:39.202Z,18.77
2023-05-09T10:52:03.657Z,18.91
2023-05-09T10:53:28.398Z,19.00
2023-05-09T10:54:59.640Z,19.07
2023-05-09T10:56:29.265Z,19.12
2023-05-09T10:57:50.866Z,19.16
2023-05-09T10:59:12.613Z,19.19
2023-05-09T11:00:36.812Z,19.25
2023-05-09T11:02:10.015Z,19.34
2023-05-09T11:03:34.270Z,19.43
2023-05-09T11:04:56.211Z,19.50
2023-05-09T11:06:17.973Z,19.57
2023-05-09T11:07:40.000Z,19.64
2023-05-09T11:09:11.502Z,19.72
2023-05-09T11:10:35.386Z,19.81
2023-05-09T11:11:57.379Z,19.89
2023-05-09T11:13:23.813Z,19.96
2023-05-09T11:15:05.481Z,20.03
2023-05-09T11:16:27.940Z,20.10
2023-05-09T11:17:49.510Z,20.15
2023-05-09T11:19:11.268Z,20.20
2023-05-09T11:20:35.869Z,20.26
2023-05-09T11:22:00.447Z,20.32
2023-05-09T11:23:22.273Z,20.36
2023-05-09T11:24:51.365Z,20.41
2023-05-09T11:26:20.662Z,20.45
2023-05-09T11:27:43.247Z,20.50
2023-05-09T11:29:10.140Z,20.57
2023-05-09T11:30:32.150Z,20.64
2023-05-09T11:31:54.646Z,20.72
2023-05-09T11:33:16.453Z,20.76
2023-05-09T11:34:38.249Z,20.82
2023-05-09T11:36:00.688Z,20.90
2023-05-09T11:37:29.594Z,20.98
2023-05-09T11:38:51.500Z,21.06
2023-05-09T11:40:15.702Z,21.16
2023-05-09T11:41:39.745Z,21.25
2023-05-09T11:43:02.394Z,21.35
2023-05-09T11:44:38.836Z,21.43
2023-05-09T11:46:05.488Z,21.50
2023-05-09T11:47:29.472Z,21.57
2023-05-09T11:49:14.587Z,21.63
2023-05-09T11:50:48.259Z,21.73
2023-05-09T11:52:21.858Z,21.84
2023-05-09T11:53:47.105Z,21.92
2023-05-09T11:55:31.492Z,22.00
2023-05-09T11:57:17.058Z,22.08
2023-05-09T11:59:02.024Z,22.14
2023-05-09T12:00:46.171Z,22.20
2023-05-09T12:02:15.922Z,22.29
2023-05-09T12:03:45.091Z,22.36
2023-05-09T12:05:20.042Z,22.44
2023-05-09T12:06:43.273Z,22.51
2023-05-09T12:08:10.615Z,22.58
2023-05-09T12:09:37.768Z,22.64
2023-05-09T12:10:59.787Z,22.71
2023-05-09T12:12:33.473Z,22.79
2023-05-09T12:13:55.398Z,22.87
2023-05-09T12:15:20.064Z,22.92
2023-05-09T12:16:44.068Z,22.95
2023-05-09T12:18:08.638Z,22.97
2023-05-09T12:19:32.964Z,22.99
2023-05-09T12:20:54.743Z,23.01
2023-05-09T12:22:19.266Z,23.05
2023-05-09T12:23:54.877Z,23.08
2023-05-09T12:25:16.993Z,23.13
2023-05-09T12:26:41.113Z,23.17
2023-05-09T12:28:14.949Z,23.22
2023-05-09T12:29:48.782Z,23.27
2023-05-09T12:31:12.506Z,23.34
2023-05-09T12:32:36.629Z,23.38
2023-05-09T12:34:01.636Z,23.41
2023-05-09T12:35:30.998Z,23.41
2023-05-09T12:37:00.189Z,23.39
2023-05-09T12:38:26.479Z,23.36
2023-05-09T12:39:50.496Z,23.36
2023-05-09T12:41:41.376Z,23.38
2023-05-09T12:43:18.041Z,23.43
2023-05-09T12:44:39.635Z,23.44
2023-05-09T12:46:02.260Z,23.45
2023-05-09T12:47:47.297Z,23.44
2023-05-09T12:49:11.856Z,23.44
2023-05-09T12:50:36.494Z,23.46
2023-05-09T12:52:07.740Z,23.50
2023-05-09T12:53:54.108Z,23.56
2023-05-09T12:55:23.445Z,23.62
2023-05-09T12:56:46.776Z,23.70
2023-05-09T12:58:11.296Z,23.80
2023-05-09T12:59:42.575Z,23.91
2023-05-09T13:01:18.701Z,23.97
2023-05-09T13:02:42.705Z,24.05
2023-05-09T13:04:07.485Z,24.14
2023-05-09T13:05:50.656Z,24.23
2023-05-09T13:07:12.235Z,24.24
2023-05-09T13:08:35.916Z,24.21
2023-05-09T13:10:05.619Z,24.20
2023-05-09T13:11:38.890Z,24.23
2023-05-09T13:13:14.672Z,24.31
2023-05-09T13:14:47.950Z,24.35
2023-05-09T13:16:11.161Z,24.35
2023-05-09T13:17:45.686Z,24.34
2023-05-09T13:19:07.965Z,24.30
2023-05-09T13:20:36.931Z,24.24
2023-05-09T13:21:59.199Z,24.21
2023-05-09T13:23:32.637Z,24.20
2023-05-09T13:25:01.827Z,24.22
2023-05-09T13:26:23.559Z,24.24
2023-05-09T13:27:46.021Z,24.27
2023-05-09T13:29:07.893Z,24.34
2023-05-09T13:30:29.569Z,24.43
2023-05-09T13:31:52.101Z,24.51
2023-05-09T13:33:25.245Z,24.56
2023-05-09T13:34:57.984Z,24.62
2023-05-09T13:36:19.815Z,24.64
2023-05-09T13:37:49.680Z,24.64
2023-05-09T13:39:11.879Z,24.70
2023-05-09T13:40:35.871Z,24.80
2023-05-09T13:42:09.162Z,24.95
2023-05-09T13:43:32.972Z,25.10
2023-05-09T13:44:57.270Z,25.24
2023-05-09T13:46:44.331Z,25.32
2023-05-09T13:48:08.969Z,25.39
2023-05-09T13:49:38.210Z,25.47
2023-05-09T13:51:01.301Z,25.51
2023-05-09T13:52:24.855Z,25.53
2023-05-09T13:53:48.667Z,25.56
2023-05-09T13:55:14.871Z,25.62
2023-05-09T13:56:36.948Z,25.73
2023-05-09T13:57:59.037Z,25.82
2023-05-09T13:59:20.576Z,25.93
2023-05-09T14:00:46.810Z,26.01
2023-05-09T14:02:08.768Z,26.07
2023-05-09T14:03:30.635Z,26.13
2023-05-09T14:04:54.553Z,26.19
2023-05-09T14:06:18.790Z,26.28
2023-05-09T14:07:54.720Z,26.37
2023-05-09T14:09:41.489Z,26.39
2023-05-09T14:11:11.018Z,26.40
2023-05-09T14:12:40.843Z,26.43
2023-05-09T14:14:16.798Z,26.42
2023-05-09T14:16:01.368Z,26.43
2023-05-09T14:17:46.854Z,26.43
2023-05-09T14:19:08.750Z,26.42
2023-05-09T14:20:42.201Z,26.40
2023-05-09T14:22:20.268Z,26.43
2023-05-09T14:23:55.900Z,26.54
2023-05-09T14:25:17.937Z,26.58
2023-05-09T14:26:40.079Z,26.57
2023-05-09T14:28:10.431Z,26.54
2023-05-09T14:29:46.097Z,26.51
2023-05-09T14:31:28.673Z,26.51
2023-05-09T14:32:50.846Z,26.56
2023-05-09T14:34:24.018Z,26.61
2023-05-09T14:36:09.130Z,26.67
2023-05-09T14:37:44.960Z,26.76
2023-05-09T14:39:20.416Z,26.85
2023-05-09T14:40:42.302Z,26.96
2023-05-09T14:42:17.493Z,27.07
2023-05-09T14:43:41.306Z,27.20
2023-05-09T14:45:03.512Z,27.30
2023-05-09T14:46:29.992Z,27.41
2023-05-09T14:47:59.083Z,27.52
2023-05-09T14:49:27.923Z,27.58
2023-05-09T14:50:56.764Z,27.58
2023-05-09T14:52:32.805Z,27.59
2023-05-09T14:54:06.066Z,27.65
2023-05-09T14:55:39.324Z,27.72
2023-05-09T14:57:08.984Z,27.79
2023-05-09T14:58:32.997Z,27.81
2023-05-09T14:59:59.064Z,27.82
2023-05-09T15:01:30.562Z,27.80
2023-05-09T15:02:54.583Z,27.79
2023-05-09T15:04:28.381Z,27.81
2023-05-09T15:06:02.466Z,27.85
2023-05-09T15:07:35.877Z,27.86
2023-05-09T15:09:02.426Z,27.81
2023-05-09T15:10:31.898Z,27.71
2023-05-09T15:12:05.299Z,27.60
2023-05-09T15:13:27.335Z,27.54
2023-05-09T15:14:48.865Z,27.52
2023-05-09T15:16:12.992Z,27.54
2023-05-09T15:17:41.930Z,27.58
2023-05-09T15:19:15.437Z,27.57
2023-05-09T15:20:37.422Z,27.54
2023-05-09T15:22:10.827Z,27.53
2023-05-09T15:23:32.773Z,27.50
2023-05-09T15:24:54.906Z,27.44
2023-05-09T15:26:16.973Z,27.36
2023-05-09T15:27:50.517Z,27.30
2023-05-09T15:29:19.740Z,27.26
2023-05-09T15:30:45.353Z,27.28
2023-05-09T15:32:14.980Z,27.34
2023-05-09T15:33:50.485Z,27.43
2023-05-09T15:35:24.116Z,27.54
2023-05-09T15:36:45.611Z,27.61
2023-05-09T15:38:11.957Z,27.63
2023-05-09T15:39:43.252Z,27.61
2023-05-09T15:41:16.950Z,27.56
2023-05-09T15:42:50.821Z,27.48
2023-05-09T15:44:14.880Z,27.40
2023-05-09T15:45:46.493Z,27.33
2023-05-09T15:47:17.937Z,27.22
2023-05-09T15:48:40.038Z,27.11
2023-05-09T15:50:01.674Z,27.02
2023-05-09T15:51:31.042Z,26.94
2023-05-09T15:53:04.688Z,26.86
2023-05-09T15:54:26.982Z,26.77
2023-05-09T15:55:50.903Z,26.68
2023-05-09T15:57:13.335Z,26.58
2023-05-09T15:58:35.117Z,26.48
2023-05-09T15:59:57.189Z,26.36
2023-05-09T16:01:19.098Z,26.25
2023-05-09T16:02:42.096Z,26.14
2023-05-09T16:04:05.283Z,25.93
2023-05-09T16:05:27.697Z,25.66
2023-05-09T16:06:49.046Z,25.41
2023-05-09T16:08:18.695Z,25.16
2023-05-09T16:09:40.329Z,24.84
2023-05-09T16:11:04.674Z,24.54
2023-05-09T16:12:26.843Z,24.19
2023-05-09T16:13:48.490Z,23.84
2023-05-09T16:15:10.157Z,23.54
2023-05-09T16:16:31.869Z,23.27
2023-05-09T16:18:00.900Z,23.02
2023-05-09T16:19:36.700Z,22.78
2023-05-09T16:21:10.147Z,22.44
2023-05-09T16:22:32.253Z,22.17
2023-05-09T16:23:53.792Z,21.91
2023-05-09T16:25:15.497Z,21.64
2023-05-09T16:26:37.426Z,21.38
2023-05-09T16:27:59.044Z,21.12
2023-05-09T16:29:22.333Z,20.85
2023-05-09T16:30:44.117Z,20.58
2023-05-09T16:32:08.452Z,20.34
2023-05-09T16:33:30.190Z,20.10
2023-05-09T16:34:53.848Z,19.86
2023-05-09T16:36:15.593Z,19.64
2023-05-09T16:37:37.437Z,19.42
2023-05-09T16:38:59.198Z,19.23
2023-05-09T16:40:21.252Z,19.03
2023-05-09T16:41:45.384Z,18.85
2023-05-09T16:43:07.245Z,18.67
2023-05-09T16:44:31.485Z,18.48
2023-05-09T16:45:53.681Z,18.29
2023-05-09T16:47:15.161Z,18.13
2023-05-09T16:48:36.474Z,17.99
2023-05-09T16:49:58.038Z,17.84
2023-05-09T16:51:19.708Z,17.69
2023-05-09T16:52:44.054Z,17.53
2023-05-09T16:54:05.749Z,17.40
2023-05-09T16:55:27.363Z,17.27
2023-05-09T16:56:51.745Z,17.13
2023-05-09T16:58:15.604Z,17.03
2023-05-09T16:59:37.332Z,16.90
2023-05-09T17:01:02.135Z,16.79
2023-05-09T17:02:24.160Z,16.68
2023-05-09T17:03:48.222Z,16.58
2023-05-09T17:05:09.956Z,16.47
2023-05-09T17:06:36.312Z,16.37
2023-05-09T17:08:00.280Z,16.26
2023-05-09T17:09:24.379Z,16.16
2023-05-09T17:10:46.124Z,16.07
2023-05-09T17:12:10.352Z,15.98
2023-05-09T17:13:34.637Z,15.88
2023-05-09T17:14:56.609Z,15.79
2023-05-09T17:16:18.128Z,15.71
2023-05-09T17:17:42.110Z,15.64
2023-05-09T17:19:03.958Z,15.56
2023-05-09T17:20:28.862Z,15.48
2023-05-09T17:21:50.710Z,15.41
2023-05-09T17:23:14.308Z,15.34
2023-05-09T17:24:45.199Z,15.26
2023-05-09T17:26:07.032Z,15.20
2023-05-09T17:27:28.824Z,15.13
2023-05-09T17:28:50.517Z,15.06
2023-05-09T17:30:12.900Z,15.00
2023-05-09T17:31:35.030Z,14.93
2023-05-09T17:33:17.657Z,14.88
2023-05-09T17:34:41.928Z,14.79
2023-05-09T17:36:15.328Z,14.71
2023-05-09T17:37:39.456Z,14.65
2023-05-09T17:39:01.554Z,14.60
2023-05-09T17:40:25.319Z,14.53
2023-05-09T17:41:47.483Z,14.46
2023-05-09T17:43:08.952Z,14.39
2023-05-09T17:44:30.719Z,14.33
2023-05-09T17:45:54.794Z,14.27
2023-05-09T17:47:16.406Z,14.21
2023-05-09T17:48:38.670Z,14.15
2023-05-09T17:50:00.852Z,14.09
2023-05-09T17:51:22.740Z,14.03
2023-05-09T17:52:47.688Z,13.97
2023-05-09T17:54:11.656Z,13.91
2023-05-09T17:55:33.345Z,13.86
2023-05-09T17:56:59.083Z,13.80
2023-05-09T17:58:23.251Z,13.75
2023-05-09T17:59:48.042Z,13.70
2023-05-09T18:01:21.695Z,13.63
2023-05-09T18:02:51.036Z,13.59
2023-05-09T18:04:15.654Z,13.54
2023-05-09T18:05:37.672Z,13.48
2023-05-09T18:06:59.123Z,13.44
2023-05-09T18:08:20.857Z,13.40
2023-05-09T18:09:50.085Z,13.34
2023-05-09T18:11:11.700Z,13.29
2023-05-09T18:12:36.780Z,13.24
2023-05-09T18:13:58.702Z,13.19
2023-05-09T18:15:20.049Z,13.14
2023-05-09T18:16:43.939Z,13.09
2023-05-09T18:18:15.634Z,13.04
2023-05-09T18:19:39.889Z,13.00
2023-05-09T18:21:13.597Z,12.95
2023-05-09T18:22:37.231Z,12.90
2023-05-09T18:24:10.740Z,12.84
2023-05-09T18:25:34.654Z,12.79
2023-05-09T18:26:58.840Z,12.74
2023-05-09T18:28:42.912Z,12.68
2023-05-09T18:30:24.600Z,12.63
2023-05-09T18:31:46.037Z,12.56
2023-05-09T18:33:08.113Z,12.52
2023-05-09T18:34:30.318Z,12.47
2023-05-09T18:35:52.101Z,12.42
2023-05-09T18:37:16.098Z,12.38
2023-05-09T18:38:41.061Z,12.33
2023-05-09T18:40:19.516Z,12.29
2023-05-09T18:41:41.104Z,12.23
2023-05-09T18:43:05.258Z,12.19
2023-05-09T18:44:29.217Z,12.14
2023-05-09T18:45:51.829Z,12.10
2023-05-09T18:47:13.413Z,12.05
2023-05-09T18:48:37.586Z,12.01
2023-05-09T18:50:03.030Z,11.97
2023-05-09T18:51:25.577Z,11.91
2023-05-09T18:52:55.291Z,11.88
2023-05-09T18:54:19.179Z,11.83
2023-05-09T18:55:48.557Z,11.80